Terminal Aerodrome Forecast
Issued by NWS Missoula, MT

Home | Current Version | Previous Version | Text Only | Print | Product List | Glossary On
Versions: 1 2 3 4 5 6 7 8 9 10 11 12 13 14 15 16
246
FTUS45 KMSO 240534
TAFBTM
TAF
KBTM 240534Z 2406/2506 25011KT P6SM -RA FEW020 OVC050
     FM241100 VRB03KT 4SM -RASN SCT010 BKN020 OVC030
     FM241500 VRB03KT P6SM -RA FEW010 BKN025 OVC035=

USA.gov is the U.S. government's official web portal to all federal, state and local government web resources and services.